首页
METAR-TAF:

METAR-TAF

机场 :

北京首都国际机场

北京, 中华人民共和国

纬度: 39-56N, 经度: 116-17E, 海拔: 55米

当前天气观测

该预报发布于33分钟前的21:30 UTC
风速4节,风向
温度 18°C
湿度 68%
气压 1009 hPa
能见度10公里或以上
1500米以下无云,无积雨云

METAR: ZBAA 232130Z 36002MPS CAVOK 18/12 Q1009 NOSIG

时间: 06:03 (22:03 UTC)

预报

该预报发布于7小时和2分钟前的15:01 UTC
预报有效从23日的 18点(UTC)到 24日的 18点(UTC)
风速8节,风向北转东北
能见度10公里或以上
1500米以下无云,无积雨云

TAF: ZBAA 231501Z 2318/2418 02004MPS CAVOK TX35/2407Z TN19/2321Z

超过4000个机场的气象观测和天气预报(METAR&TAF报告)。

可查询的气象台以黄色和红色小点在地图上表示。

将鼠标移到小点上方,可查看气象台名称。

然后点击查看天气观测和预报。

如需切换地图:点击带黑十字的绿色按钮放大地图;点击带横线的绿色按钮缩小地图;或者点击绿色箭头查看邻近地区的地图。


METAR-TAF: